Time;durP1;ratioP1;P1;durP2;ratioP2;P2;SDS_P1;SDS_P2;PMS_P1;PMS_P2;Temp;Humidity;BMP_temperature;BMP_pressure;BME280_temperature;BME280_humidity;BME280_pressure;Samples;Min_cycle;Max_cycle;Signal;HPM_P1;HPM_P2
2021/11/28 00:01:13;;;;;;;27.37;18.07;;;;;;;5.09;100.00;98728.72;1355574;93;20243;-87
2021/11/28 00:03:41;;;;;;;27.02;16.52;;;;;;;5.14;99.86;98725.97;1357380;90;22706;-88
2021/11/28 00:06:18;;;;;;;27.50;17.50;;;;;;;5.20;99.58;98733.72;1357464;90;22810;-89
2021/11/28 00:13:45;;;;;;;30.43;17.80;;;;;;;5.29;98.92;98727.53;1357458;90;21422;-89
2021/11/28 00:16:02;;;;;;;28.10;18.07;;;;;;;5.30;98.80;98726.58;1357616;90;21488;-89
2021/11/28 00:18:30;;;;;;;29.77;19.53;;;;;;;5.31;98.69;98724.28;1357591;91;22435;-88
2021/11/28 00:20:57;;;;;;;34.57;23.03;;;;;;;5.34;98.41;98725.27;1357758;91;22266;-89
2021/11/28 00:23:24;;;;;;;26.03;19.07;;;;;;;5.36;98.36;98727.27;1358141;91;22909;-89
2021/11/28 00:25:52;;;;;;;34.17;21.43;;;;;;;5.40;98.07;98727.77;1358861;91;22391;-90
2021/11/28 00:28:20;;;;;;;47.57;27.13;;;;;;;5.41;97.89;98720.25;1359450;91;21311;-88
2021/11/28 00:30:48;;;;;;;26.20;17.60;;;;;;;5.48;97.85;98721.75;1358401;90;21363;-89
2021/11/28 00:33:15;;;;;;;23.20;17.00;;;;;;;5.52;97.71;98717.32;1358096;91;21266;-89
2021/11/28 00:35:43;;;;;;;27.57;17.67;;;;;;;5.59;97.58;98712.29;1370933;91;22188;-89
2021/11/28 00:38:10;;;;;;;22.57;17.30;;;;;;;5.61;97.23;98715.55;1378450;89;22329;-90
2021/11/28 00:40:37;;;;;;;23.33;15.93;;;;;;;5.63;97.01;98709.67;1378204;89;22233;-89
2021/11/28 00:43:04;;;;;;;20.87;15.57;;;;;;;5.62;96.85;98706.72;1378543;89;21309;-90
2021/11/28 00:45:32;;;;;;;24.20;15.73;;;;;;;5.59;96.71;98707.86;1378246;89;21338;-89
2021/11/28 00:48:00;;;;;;;22.50;16.27;;;;;;;5.57;96.53;98706.37;1377240;89;21220;-90
2021/11/28 00:50:45;;;;;;;23.37;16.33;;;;;;;5.58;96.67;98701.44;1377287;89;21353;-90
2021/11/28 00:53:16;;;;;;;25.50;17.43;;;;;;;5.58;96.55;98704.06;1377624;89;22498;-88
2021/11/28 00:55:43;;;;;;;24.60;16.13;;;;;;;5.58;96.58;98695.72;1377133;89;22146;-90
2021/11/28 00:58:11;;;;;;;24.10;15.77;;;;;;;5.59;96.64;98696.55;1377805;89;22248;-89
2021/11/28 01:00:39;;;;;;;27.77;18.57;;;;;;;5.59;96.57;98693.42;1375359;89;21331;-87
2021/11/28 01:03:07;;;;;;;25.60;16.20;;;;;;;5.61;96.44;98691.94;1375843;89;22262;-88
2021/11/28 01:05:34;;;;;;;22.80;14.87;;;;;;;5.64;96.50;98691.65;1376738;89;21317;-88
2021/11/28 01:08:01;;;;;;;19.93;15.07;;;;;;;5.64;96.48;98686.40;1375826;89;21309;-88
2021/11/28 01:10:28;;;;;;;18.43;13.80;;;;;;;5.63;96.46;98690.80;1376073;89;21346;-89
2021/11/28 01:12:56;;;;;;;21.77;15.73;;;;;;;5.63;96.30;98688.17;1375518;89;21331;-88
2021/11/28 01:15:23;;;;;;;25.90;16.33;;;;;;;5.60;96.77;98682.43;1375178;89;21206;-89
2021/11/28 01:17:50;;;;;;;22.13;15.80;;;;;;;5.59;96.73;98676.86;1375027;89;21331;-87
2021/11/28 01:20:18;;;;;;;23.80;15.70;;;;;;;5.58;96.80;98667.32;1356870;89;21206;-88
2021/11/28 01:22:45;;;;;;;20.50;14.03;;;;;;;5.58;96.75;98657.67;1356310;91;22226;-89
2021/11/28 01:25:14;;;;;;;20.57;14.73;;;;;;;5.63;96.66;98651.93;1355792;91;21466;-88
2021/11/28 01:27:43;;;;;;;21.63;14.70;;;;;;;5.66;96.67;98651.11;1356782;91;21384;-89
2021/11/28 01:30:11;;;;;;;19.30;14.80;;;;;;;5.67;96.78;98646.70;1357223;91;21280;-88
2021/11/28 01:32:40;;;;;;;17.70;13.90;;;;;;;5.68;96.48;98649.66;1357814;91;21488;-89
2021/11/28 01:35:12;;;;;;;17.93;14.00;;;;;;;5.69;96.46;98649.16;1356100;91;21377;-88
2021/11/28 01:37:41;;;;;;;19.00;15.37;;;;;;;5.68;96.57;98649.66;1357864;91;21332;-89
2021/11/28 01:40:13;;;;;;;20.57;14.37;;;;;;;5.70;96.59;98652.95;1362812;91;22182;-89
2021/11/28 01:43:00;;;;;;;23.60;15.90;;;;;;;5.70;96.56;98646.39;1356535;92;21450;-89
2021/11/28 01:46:02;;;;;;;20.93;14.67;;;;;;;5.70;96.43;98646.39;1358446;91;21331;-88
2021/11/28 01:48:30;;;;;;;20.57;14.38;;;;;;;5.71;96.43;98638.02;1358398;91;21252;-91
2021/11/28 01:51:02;;;;;;;19.10;14.03;;;;;;;5.77;96.61;98640.00;1359067;91;21376;-90
2021/11/28 01:53:28;;;;;;;22.20;14.67;;;;;;;5.82;96.45;98633.78;1357013;91;22720;-90
2021/11/28 01:55:57;;;;;;;21.70;15.73;;;;;;;5.86;96.37;98629.84;1356468;91;21513;-89
2021/11/28 01:58:25;;;;;;;24.53;15.17;;;;;;;5.86;96.09;98624.09;1340742;92;21361;-89
2021/11/28 02:00:57;;;;;;;24.40;16.93;;;;;;;5.86;95.80;98626.72;1359973;91;21365;-89
2021/11/28 02:03:26;;;;;;;21.87;14.90;;;;;;;5.86;95.68;98633.77;1358349;90;22712;-89
2021/11/28 02:05:58;;;;;;;23.83;15.27;;;;;;;5.86;95.62;98633.77;1341439;91;21276;-89
2021/11/28 02:08:25;;;;;;;20.00;14.43;;;;;;;5.85;95.46;98631.65;1357017;91;21239;-89
2021/11/28 02:10:53;;;;;;;17.27;13.40;;;;;;;5.87;95.48;98632.31;1356296;90;21327;-89
2021/11/28 02:13:22;;;;;;;16.27;12.63;;;;;;;5.87;95.45;98630.19;1356774;90;22198;-89
2021/11/28 02:15:50;;;;;;;17.17;12.97;;;;;;;5.89;95.52;98634.77;1368017;90;21247;-89
2021/11/28 02:18:18;;;;;;;18.87;14.53;;;;;;;5.86;95.43;98631.97;1356926;90;22745;-89
2021/11/28 02:20:48;;;;;;;18.97;13.60;;;;;;;5.82;95.62;98630.66;1357385;91;21475;-89
2021/11/28 02:23:15;;;;;;;17.47;13.83;;;;;;;5.76;95.90;98633.94;1358624;90;21358;-89
2021/11/28 02:25:44;;;;;;;18.90;14.30;;;;;;;5.74;95.90;98642.45;1356679;91;21276;-89
2021/11/28 02:28:12;;;;;;;20.00;13.90;;;;;;;5.71;96.37;98634.08;1357837;90;21313;-88
2021/11/28 02:30:39;;;;;;;16.37;12.67;;;;;;;5.72;96.25;98641.78;1356283;91;21350;-89
2021/11/28 02:33:07;;;;;;;19.40;13.67;;;;;;;5.75;96.31;98639.33;1357349;91;21305;-89
2021/11/28 02:35:35;;;;;;;20.80;13.03;;;;;;;5.72;96.48;98631.28;1356495;90;21402;-88
2021/11/28 02:38:05;;;;;;;19.00;14.43;;;;;;;5.76;96.13;98645.75;1356467;91;21268;-88
2021/11/28 02:40:35;;;;;;;18.12;14.03;;;;;;;5.81;96.29;98643.47;1356526;91;22111;-89
2021/11/28 02:43:03;;;;;;;25.37;15.17;;;;;;;5.78;96.78;98634.60;1357070;91;21350;-89
2021/11/28 02:45:32;;;;;;;20.50;15.23;;;;;;;5.75;96.38;98633.58;1357175;91;21380;-89
2021/11/28 02:48:03;;;;;;;19.00;12.97;;;;;;;5.75;96.40;98632.77;1357049;91;21378;-89
2021/11/28 02:50:31;;;;;;;20.97;14.67;;;;;;;5.71;97.65;98612.59;1356608;92;21291;-89
2021/11/28 02:53:04;;;;;;;18.53;13.77;;;;;;;5.61;98.30;98611.89;1357609;91;21320;-88
2021/11/28 02:55:35;;;;;;;18.97;13.73;;;;;;;5.58;98.30;98608.27;1356206;91;21380;-88
2021/11/28 02:58:05;;;;;;;19.07;14.17;;;;;;;5.57;98.63;98602.70;1363306;90;21320;-88
2021/11/28 03:00:35;;;;;;;20.67;13.90;;;;;;;5.54;98.46;98603.03;1357231;90;21387;-88
2021/11/28 03:03:03;;;;;;;18.23;13.72;;;;;;;5.53;98.69;98602.70;1356612;90;21454;-88
2021/11/28 03:05:30;;;;;;;19.83;14.37;;;;;;;5.48;99.43;98597.11;1356670;90;21446;-88
2021/11/28 03:07:58;;;;;;;17.40;14.03;;;;;;;5.46;99.77;98591.19;1360716;90;21313;-87
2021/11/28 03:10:33;;;;;;;17.70;13.20;;;;;;;5.41;100.00;98593.81;1356658;90;21434;-88
2021/11/28 03:13:04;;;;;;;18.80;13.90;;;;;;;5.43;100.00;98598.39;1356506;91;21217;-88
2021/11/28 03:15:32;;;;;;;19.90;14.18;;;;;;;5.49;99.67;98598.75;1354739;91;21449;-88
2021/11/28 03:18:02;;;;;;;19.80;14.33;;;;;;;5.51;99.97;98594.16;1357144;91;21431;-89
2021/11/28 03:20:30;;;;;;;17.77;12.70;;;;;;;5.54;99.56;98595.16;1356576;91;22119;-88
2021/11/28 03:22:58;;;;;;;15.10;11.63;;;;;;;5.59;99.35;98600.75;1356843;90;21357;-88
2021/11/28 03:25:25;;;;;;;17.00;13.37;;;;;;;5.63;99.10;98600.75;1358047;91;21291;-89
2021/11/28 03:27:52;;;;;;;20.47;14.77;;;;;;;5.66;98.74;98604.36;1357366;91;22185;-89
2021/11/28 03:30:22;;;;;;;22.83;14.23;;;;;;;5.75;98.77;98606.02;1357741;91;22325;-90
2021/11/28 03:32:51;;;;;;;18.10;13.63;;;;;;;5.78;98.33;98614.06;1358448;91;21247;-89
2021/11/28 03:35:19;;;;;;;18.40;14.27;;;;;;;5.79;98.01;98611.30;1357329;91;21305;-89
2021/11/28 03:37:46;;;;;;;17.03;13.23;;;;;;;5.78;97.90;98607.04;1357435;90;21320;-89
2021/11/28 03:40:14;;;;;;;16.57;12.73;;;;;;;5.78;97.76;98600.94;1358661;90;21260;-90
2021/11/28 03:42:42;;;;;;;17.97;13.00;;;;;;;5.79;97.50;98603.42;1355543;91;21320;-89
2021/11/28 03:45:14;;;;;;;15.17;12.17;;;;;;;5.78;97.33;98608.35;1357148;91;22340;-90
2021/11/28 03:47:42;;;;;;;16.17;11.87;;;;;;;5.76;97.27;98612.93;1359071;91;21313;-90
2021/11/28 03:50:09;;;;;;;17.97;12.27;;;;;;;5.71;97.42;98602.58;1357688;91;21306;-89
2021/11/28 03:52:37;;;;;;;14.47;11.47;;;;;;;5.67;97.33;98599.47;1357628;91;22244;-89
2021/11/28 03:55:06;;;;;;;14.47;11.00;;;;;;;5.65;97.36;98600.92;1358046;90;22259;-90
2021/11/28 03:57:33;;;;;;;14.33;11.23;;;;;;;5.62;97.24;98607.81;1358675;91;21284;-89
2021/11/28 04:00:02;;;;;;;16.07;12.13;;;;;;;5.59;97.21;98614.69;1342055;90;22340;-89
2021/11/28 04:02:30;;;;;;;17.57;12.93;;;;;;;5.53;97.20;98614.02;1356899;91;21513;-90
2021/11/28 04:04:57;;;;;;;15.87;12.30;;;;;;;5.51;97.58;98613.84;1358094;90;21283;-87
2021/11/28 04:07:24;;;;;;;17.33;12.50;;;;;;;5.48;97.36;98611.55;1357180;90;21246;-88
2021/11/28 04:09:51;;;;;;;16.20;11.93;;;;;;;5.42;97.69;98603.32;1356602;90;21416;-90
2021/11/28 04:12:18;;;;;;;17.80;12.83;;;;;;;5.46;97.54;98611.69;1357032;91;22406;-89
2021/11/28 04:14:46;;;;;;;15.73;12.27;;;;;;;5.46;97.45;98610.38;1356521;91;22635;-89
2021/11/28 04:17:13;;;;;;;17.80;12.73;;;;;;;5.45;97.46;98605.30;1356560;90;22345;-89
2021/11/28 04:19:40;;;;;;;15.70;12.57;;;;;;;5.45;97.50;98605.30;1358109;91;21210;-89
2021/11/28 04:22:07;;;;;;;17.77;13.07;;;;;;;5.41;97.21;98610.05;1356289;90;21321;-89
2021/11/28 04:24:35;;;;;;;16.50;13.37;;;;;;;5.39;97.00;98615.94;1356759;91;21312;-89
2021/11/28 04:27:02;;;;;;;16.00;12.63;;;;;;;5.33;97.51;98616.58;1360052;91;21335;-88
2021/11/28 04:29:29;;;;;;;14.50;12.17;;;;;;;5.32;97.17;98626.72;1357064;91;21336;-89
2021/11/28 04:31:56;;;;;;;19.63;13.53;;;;;;;5.31;97.10;98628.53;1356749;91;21423;-89
2021/11/28 04:34:23;;;;;;;17.30;13.43;;;;;;;5.26;97.76;98627.36;1357600;91;21462;-89
2021/11/28 04:36:51;;;;;;;19.20;13.53;;;;;;;5.23;97.97;98632.42;1356793;90;21482;-90
2021/11/28 04:39:18;;;;;;;18.47;14.20;;;;;;;5.19;97.96;98637.66;1357195;91;21275;-90
2021/11/28 04:41:47;;;;;;;16.97;13.67;;;;;;;5.14;98.13;98632.06;1358172;90;21339;-90
2021/11/28 04:44:15;;;;;;;16.50;13.93;;;;;;;5.11;98.48;98642.86;1358839;91;21327;-90
2021/11/28 04:46:42;;;;;;;20.03;14.80;;;;;;;5.12;98.04;98652.36;1358433;91;21298;-90
2021/11/28 04:49:09;;;;;;;17.43;12.63;;;;;;;5.10;98.42;98650.41;1358741;90;21290;-90
2021/11/28 04:51:37;;;;;;;18.67;13.70;;;;;;;5.07;98.63;98641.05;1358533;91;21401;-89
2021/11/28 04:54:04;;;;;;;16.63;12.87;;;;;;;5.06;98.78;98645.94;1358047;91;21313;-91
2021/11/28 04:56:31;;;;;;;17.47;14.07;;;;;;;5.11;98.62;98642.37;1357690;91;21327;-90
2021/11/28 04:58:58;;;;;;;17.33;13.47;;;;;;;5.12;98.19;98646.66;1357309;90;21305;-88
2021/11/28 05:01:26;;;;;;;18.17;14.07;;;;;;;5.13;98.19;98643.54;1356946;91;21306;-89
2021/11/28 05:03:53;;;;;;;18.83;13.83;;;;;;;5.14;98.00;98641.23;1356108;91;21313;-88
2021/11/28 05:06:20;;;;;;;18.50;13.87;;;;;;;5.17;97.97;98639.61;1356755;91;22086;-88
2021/11/28 05:08:47;;;;;;;19.80;15.67;;;;;;;5.19;97.86;98640.28;1357186;91;22229;-88
2021/11/28 05:11:14;;;;;;;17.43;13.60;;;;;;;5.20;97.92;98636.67;1357543;90;22487;-88
2021/11/28 05:13:42;;;;;;;17.67;13.23;;;;;;;5.12;97.99;98639.25;1356733;90;22349;-88
2021/11/28 05:16:09;;;;;;;16.87;14.67;;;;;;;5.10;97.72;98643.85;1356725;90;22903;-88
2021/11/28 05:18:36;;;;;;;16.97;13.87;;;;;;;5.06;98.00;98642.50;1357408;90;21555;-88
2021/11/28 05:21:03;;;;;;;17.07;13.27;;;;;;;5.07;97.70;98639.73;1356353;90;21335;-88
2021/11/28 05:23:31;;;;;;;18.40;14.53;;;;;;;5.10;97.83;98638.61;1356741;90;21550;-88
2021/11/28 05:25:58;;;;;;;20.73;16.90;;;;;;;5.10;97.78;98641.23;1356364;90;21467;-87
2021/11/28 05:28:25;;;;;;;19.57;15.00;;;;;;;5.09;97.72;98638.25;1356815;90;21305;-88
2021/11/28 05:30:52;;;;;;;18.30;14.80;;;;;;;5.09;97.45;98642.19;1356705;90;21335;-89
2021/11/28 05:33:19;;;;;;;19.10;14.87;;;;;;;5.10;97.53;98643.85;1356579;90;21381;-89
2021/11/28 05:35:46;;;;;;;18.23;14.50;;;;;;;5.16;97.48;98647.97;1358674;90;22295;-89
2021/11/28 05:38:14;;;;;;;16.77;13.33;;;;;;;5.21;97.32;98640.96;1356329;91;21342;-86
2021/11/28 05:40:41;;;;;;;18.43;14.40;;;;;;;5.26;97.23;98635.22;1356326;91;21320;-87
2021/11/28 05:43:08;;;;;;;22.47;14.43;;;;;;;5.27;97.03;98630.33;1356637;90;21291;-89
2021/11/28 05:45:35;;;;;;;15.83;12.73;;;;;;;5.30;96.90;98633.45;1356812;91;21306;-88
2021/11/28 05:48:03;;;;;;;17.10;12.90;;;;;;;5.32;96.76;98626.26;1356864;90;21343;-88
2021/11/28 05:50:32;;;;;;;16.07;13.20;;;;;;;5.32;96.52;98624.95;1355057;91;22310;-88
2021/11/28 05:53:00;;;;;;;16.63;12.90;;;;;;;5.35;96.61;98622.00;1356949;90;21253;-86
2021/11/28 05:55:27;;;;;;;17.77;13.27;;;;;;;5.37;96.39;98627.08;1356621;90;21298;-87
2021/11/28 05:57:54;;;;;;;16.87;13.07;;;;;;;5.41;96.22;98623.17;1356408;90;21291;-88
2021/11/28 06:00:23;;;;;;;17.50;13.97;;;;;;;5.40;95.89;98629.37;1356365;90;22799;-88
2021/11/28 06:02:52;;;;;;;18.13;14.13;;;;;;;5.41;95.66;98638.91;1356946;90;21334;-88
2021/11/28 06:05:19;;;;;;;17.63;13.80;;;;;;;5.39;95.75;98635.13;1356910;90;21320;-88
2021/11/28 06:07:46;;;;;;;15.60;13.63;;;;;;;5.41;95.58;98629.23;1357854;90;21401;-90
2021/11/28 06:10:13;;;;;;;16.97;13.07;;;;;;;5.37;95.52;98630.52;1356261;90;21318;-90
2021/11/28 06:12:41;;;;;;;16.43;13.43;;;;;;;5.34;95.46;98629.52;1358987;90;21333;-90
2021/11/28 06:15:08;;;;;;;17.27;13.40;;;;;;;5.31;95.64;98622.47;1359082;90;22213;-90
2021/11/28 06:17:36;;;;;;;21.43;13.77;;;;;;;5.28;95.86;98620.16;1343517;92;21355;-90
2021/11/28 06:20:06;;;;;;;17.53;12.87;;;;;;;5.24;95.94;98619.66;1327470;92;21417;-90
2021/11/28 06:22:34;;;;;;;15.93;12.98;;;;;;;5.19;96.35;98618.81;1340111;91;22384;-90
2021/11/28 06:25:02;;;;;;;17.23;13.43;;;;;;;5.19;96.69;98623.23;1339809;92;21454;-89
2021/11/28 06:27:29;;;;;;;22.23;14.70;;;;;;;5.21;96.84;98618.66;1340599;92;21447;-91
2021/11/28 06:29:58;;;;;;;26.77;16.63;;;;;;;5.20;97.09;98621.75;1342414;92;21395;-89
2021/11/28 06:32:25;;;;;;;22.57;15.80;;;;;;;5.20;97.08;98626.19;1351274;90;21456;-87
2021/11/28 06:34:52;;;;;;;24.23;16.73;;;;;;;5.22;97.19;98624.23;1348899;91;21468;-90
2021/11/28 06:37:19;;;;;;;33.07;19.53;;;;;;;5.26;97.35;98622.92;1350126;90;21380;-88
2021/11/28 06:39:47;;;;;;;42.60;24.63;;;;;;;5.27;97.67;98615.91;1341289;92;21291;-88
2021/11/28 06:42:14;;;;;;;45.20;23.40;;;;;;;5.28;97.35;98607.86;1342763;91;21318;-87
2021/11/28 06:44:41;;;;;;;31.73;18.77;;;;;;;5.29;97.60;98612.12;1348352;90;21252;-88
2021/11/28 06:47:08;;;;;;;27.07;16.23;;;;;;;5.32;97.37;98604.42;1339812;92;21321;-89
2021/11/28 06:49:38;;;;;;;17.43;14.10;;;;;;;5.34;97.69;98609.03;1355237;91;21421;-88
2021/11/28 06:52:07;;;;;;;18.60;13.30;;;;;;;5.35;97.53;98602.80;1361710;92;21288;-88
2021/11/28 06:54:35;;;;;;;19.70;13.67;;;;;;;5.35;97.86;98608.89;1358033;90;22286;-89
2021/11/28 06:57:03;;;;;;;20.07;14.70;;;;;;;5.33;98.23;98601.66;1356320;91;21483;-89
2021/11/28 06:59:31;;;;;;;18.57;13.17;;;;;;;5.31;98.63;98597.05;1359752;90;21251;-91
2021/11/28 07:01:58;;;;;;;17.27;13.37;;;;;;;5.31;99.15;98585.74;1360293;91;21318;-91
2021/11/28 07:04:28;;;;;;;15.80;12.80;;;;;;;5.33;99.13;98592.48;1344595;91;21385;-90
2021/11/28 07:06:54;;;;;;;19.73;13.93;;;;;;;5.35;99.54;98591.84;1356537;91;21370;-89
2021/11/28 07:09:21;;;;;;;17.53;13.87;;;;;;;5.38;99.54;98592.83;1358380;90;21251;-91
2021/11/28 07:11:49;;;;;;;18.37;13.83;;;;;;;5.46;99.32;98587.26;1360017;90;21392;-91
2021/11/28 07:14:17;;;;;;;17.40;12.50;;;;;;;5.53;99.12;98574.66;1359749;90;21232;-90
2021/11/28 07:16:44;;;;;;;21.03;13.20;;;;;;;5.57;99.41;98575.97;1360403;90;21293;-90
2021/11/28 07:19:11;;;;;;;18.53;15.67;;;;;;;5.63;99.29;98574.51;1359052;90;22837;-90
2021/11/28 07:21:39;;;;;;;25.63;20.27;;;;;;;5.69;99.36;98585.66;1340105;92;22260;-90
2021/11/28 07:24:12;;;;;;;25.00;21.00;;;;;;;5.76;99.04;98587.99;1339724;91;22097;-90
2021/11/28 07:26:39;;;;;;;16.47;13.60;;;;;;;5.86;98.94;98589.96;1340230;92;21313;-89
2021/11/28 07:29:06;;;;;;;14.73;12.67;;;;;;;5.96;98.86;98589.04;1339675;92;22244;-89
2021/11/28 07:31:33;;;;;;;13.77;11.37;;;;;;;6.06;98.77;98593.13;1340017;92;22251;-88
2021/11/28 07:34:00;;;;;;;17.53;13.37;;;;;;;6.16;98.65;98598.24;1324653;93;21351;-88
2021/11/28 07:36:28;;;;;;;13.03;11.43;;;;;;;6.25;98.57;98605.63;1342342;91;21321;-87
2021/11/28 07:38:55;;;;;;;13.80;11.30;;;;;;;6.31;98.05;98602.34;1352837;90;21395;-88
2021/11/28 07:41:22;;;;;;;16.23;12.70;;;;;;;6.37;97.84;98603.48;1339625;92;21358;-88
2021/11/28 07:43:51;;;;;;;14.83;11.17;;;;;;;6.40;97.42;98598.72;1339348;92;21336;-89
2021/11/28 07:46:18;;;;;;;15.23;12.37;;;;;;;6.40;97.10;98601.84;1337549;92;22386;-89
2021/11/28 07:48:45;;;;;;;16.90;13.80;;;;;;;6.41;96.92;98602.16;1339472;92;22256;-89
2021/11/28 07:51:12;;;;;;;16.33;12.40;;;;;;;6.43;96.88;98610.20;1339000;92;22238;-89
2021/11/28 07:53:41;;;;;;;17.37;12.60;;;;;;;6.48;97.00;98618.92;1339745;91;22334;-89
2021/11/28 07:56:08;;;;;;;15.27;11.63;;;;;;;6.49;96.75;98617.92;1337617;92;21372;-89
2021/11/28 07:58:37;;;;;;;19.07;14.07;;;;;;;6.48;96.63;98618.92;1339867;92;21408;-89
2021/11/28 08:01:06;;;;;;;15.80;12.70;;;;;;;6.42;97.06;98622.22;1344483;91;21364;-88
2021/11/28 08:03:34;;;;;;;21.30;16.43;;;;;;;6.38;97.50;98618.26;1344187;91;21306;-89
2021/11/28 08:06:01;;;;;;;26.33;16.90;;;;;;;6.38;97.83;98615.63;1341605;92;21327;-89
2021/11/28 08:08:31;;;;;;;19.20;15.00;;;;;;;6.47;97.67;98613.32;1339545;92;21328;-89
2021/11/28 08:10:57;;;;;;;23.07;16.03;;;;;;;6.56;97.69;98605.78;1337530;92;21365;-89
2021/11/28 08:13:25;;;;;;;17.33;12.10;;;;;;;6.67;97.54;98602.78;1339610;92;21409;-88
2021/11/28 08:15:52;;;;;;;15.57;12.53;;;;;;;6.77;97.36;98603.43;1324748;94;22252;-89
2021/11/28 08:18:19;;;;;;;208.87;94.90;;;;;;;6.88;97.33;98610.15;1340140;92;21475;-89
2021/11/28 08:20:46;;;;;;;276.17;138.53;;;;;;;6.97;97.06;98608.32;1339882;92;21394;-89
2021/11/28 08:23:14;;;;;;;45.60;29.83;;;;;;;7.03;96.71;98623.42;1340091;92;22296;-88
2021/11/28 08:25:41;;;;;;;37.80;26.03;;;;;;;7.03;95.89;98622.11;1340224;92;21260;-90
2021/11/28 08:28:08;;;;;;;36.50;23.80;;;;;;;7.08;95.95;98625.05;1339898;92;21321;-90
2021/11/28 08:30:38;;;;;;;37.73;23.83;;;;;;;7.14;95.78;98619.11;1339927;92;21518;-88
2021/11/28 08:33:06;;;;;;;17.07;13.97;;;;;;;7.23;95.96;98619.91;1339210;92;21514;-89
2021/11/28 08:35:34;;;;;;;18.20;15.53;;;;;;;7.35;95.90;98613.77;1339128;92;21269;-89
2021/11/28 08:38:04;;;;;;;28.37;19.03;;;;;;;7.40;95.27;98610.95;1338674;92;21300;-89
2021/11/28 08:40:32;;;;;;;26.10;17.90;;;;;;;7.46;95.27;98605.00;1339019;92;21262;-89
2021/11/28 08:42:59;;;;;;;25.27;19.63;;;;;;;7.51;94.84;98603.17;1340751;92;21329;-89
2021/11/28 08:45:27;;;;;;;25.67;19.80;;;;;;;7.59;94.78;98597.84;1338820;92;21542;-88
2021/11/28 08:47:54;;;;;;;23.80;18.47;;;;;;;7.71;94.82;98599.61;1339379;92;21388;-88
2021/11/28 08:50:21;;;;;;;22.03;17.33;;;;;;;7.80;94.53;98606.97;1341022;92;21417;-88
2021/11/28 08:52:48;;;;;;;23.87;17.37;;;;;;;7.90;94.61;98603.09;1359511;90;21325;-90
2021/11/28 08:55:18;;;;;;;20.10;15.83;;;;;;;7.98;93.92;98596.95;1351617;92;21377;-90
2021/11/28 08:57:48;;;;;;;18.10;15.60;;;;;;;8.11;93.97;98591.93;1365136;90;21311;-89
2021/11/28 09:00:17;;;;;;;20.37;15.30;;;;;;;8.27;93.87;98584.37;1365719;90;21266;-87
2021/11/28 09:02:47;;;;;;;20.73;16.23;;;;;;;8.41;93.66;98580.17;1365393;90;22220;-94
2021/11/28 09:05:13;;;;;;;26.47;17.40;;;;;;;8.44;92.48;98586.91;1365888;90;21582;-89
2021/11/28 09:07:40;;;;;;;38.33;22.17;;;;;;;8.44;92.01;98575.05;1365134;90;21303;-88
2021/11/28 09:10:08;;;;;;;49.77;27.63;;;;;;;8.45;91.92;98569.58;1365084;90;21370;-89
2021/11/28 09:12:35;;;;;;;41.73;24.33;;;;;;;8.57;92.41;98568.16;1351056;91;22241;-89
2021/11/28 09:15:03;;;;;;;39.67;23.47;;;;;;;8.65;91.75;98561.16;1365820;90;22286;-89
2021/11/28 09:17:30;;;;;;;20.53;15.77;;;;;;;8.62;91.14;98557.06;1365311;90;21244;-89
2021/11/28 09:20:05;;;;;;;17.03;13.83;;;;;;;8.58;90.78;98557.92;1351003;91;21303;-90
2021/11/28 09:25:17;;;;;;;19.23;15.60;;;;;;;8.74;91.54;98556.92;1365164;90;21562;-89
2021/11/28 09:27:47;;;;;;;19.40;14.03;;;;;;;8.83;91.12;98551.56;1365315;90;21310;-89
2021/11/28 09:30:28;;;;;;;24.92;14.55;;;;;;;8.91;91.11;98555.44;1365392;90;21428;-90
2021/11/28 09:32:54;;;;;;;14.97;11.80;;;;;;;8.97;90.78;98548.91;1348849;92;21411;-89
2021/11/28 09:35:25;;;;;;;13.00;11.23;;;;;;;9.01;90.52;98552.84;1346228;93;21391;-88
2021/11/28 09:37:54;;;;;;;12.93;10.30;;;;;;;9.03;90.06;98551.33;1365134;89;21317;-90
2021/11/28 09:40:22;;;;;;;12.17;10.67;;;;;;;9.08;90.06;98550.78;1365810;90;21348;-90
2021/11/28 09:42:56;;;;;;;18.00;11.23;;;;;;;9.07;89.73;98537.28;1366044;89;21376;-90
2021/11/28 09:45:25;;;;;;;16.93;12.00;;;;;;;9.15;90.08;98535.84;1365205;89;21332;-87
2021/11/28 09:47:56;;;;;;;14.40;11.50;;;;;;;9.25;90.46;98535.06;1364862;90;21288;-87
2021/11/28 09:50:24;;;;;;;12.80;10.35;;;;;;;9.26;89.54;98528.77;1351247;91;21325;-88
2021/11/28 09:53:29;;;;;;;11.50;10.10;;;;;;;9.32;89.62;98529.37;1365051;90;21330;-86
2021/11/28 09:55:56;;;;;;;12.30;9.13;;;;;;;9.40;90.07;98523.14;1365685;91;21489;-88
2021/11/28 09:58:24;;;;;;;11.57;9.53;;;;;;;9.46;89.65;98517.92;1361101;90;21459;-88
2021/11/28 10:00:51;;;;;;;12.40;8.83;;;;;;;9.54;89.57;98513.55;1364573;90;21288;-87
2021/11/28 10:03:18;;;;;;;12.70;10.07;;;;;;;9.52;89.04;98503.16;1350778;92;21361;-88
2021/11/28 10:05:52;;;;;;;11.43;9.93;;;;;;;9.59;88.81;98488.72;1364424;90;21376;-96
2021/11/28 10:11:18;;;;;;;11.67;9.60;;;;;;;10.60;88.21;98487.48;1373500;91;21543;-93
2021/11/28 10:13:49;;;;;;;11.03;8.73;;;;;;;10.78;85.37;98481.67;1364062;91;21348;-92
2021/11/28 10:16:17;;;;;;;10.50;8.23;;;;;;;11.00;83.26;98479.73;1364274;91;21353;-93
2021/11/28 10:18:45;;;;;;;13.23;9.27;;;;;;;11.24;83.36;98486.33;1363825;91;22196;-91
2021/11/28 10:21:12;;;;;;;14.43;10.57;;;;;;;11.58;81.74;98491.20;1364131;91;21280;-92
2021/11/28 10:24:13;;;;;;;15.27;10.43;;;;;;;11.81;82.42;98492.67;1364406;90;22344;-93
2021/11/28 10:26:56;;;;;;;;;;;;;;;12.21;81.16;98498.02;1364926;91;21353;-92
2021/11/28 10:29:30;;;;;;;12.07;10.13;;;;;;;12.76;76.86;98490.05;1336204;91;20298;-91
2021/11/28 10:32:00;;;;;;;12.30;9.33;;;;;;;13.33;79.26;98486.28;1337391;91;21383;-91
2021/11/28 10:34:37;;;;;;;11.95;9.65;;;;;;;13.73;77.44;98487.38;1336669;91;21369;-90
2021/11/28 10:37:11;;;;;;;11.10;9.20;;;;;;;14.12;75.54;98492.08;1333729;91;22390;-91
2021/11/28 10:39:42;;;;;;;13.60;10.33;;;;;;;14.43;73.40;98485.86;1336238;91;21458;-88
2021/11/28 10:42:23;;;;;;;14.77;10.40;;;;;;;14.75;73.08;98483.92;1309536;91;21513;-82
2021/11/28 10:45:16;;;;;;;13.53;10.13;;;;;;;15.12;72.63;98494.55;1374148;86;21549;-94
2021/11/28 10:47:48;;;;;;;18.92;11.03;;;;;;;15.47;71.83;98504.56;1357294;89;21464;-94
2021/11/28 10:50:32;;;;;;;13.93;10.50;;;;;;;15.44;70.18;98511.68;1361732;88;21744;31
2021/11/28 10:53:16;;;;;;;12.25;10.20;;;;;;;15.21;68.22;98507.86;1349113;89;21332;31
2021/11/28 10:55:46;;;;;;;15.63;10.83;;;;;;;14.95;69.01;98505.52;1345432;88;23519;-94
2021/11/28 10:58:20;;;;;;;;;;;;;;;14.95;68.93;98496.20;1369008;87;22563;31
2021/11/28 11:00:57;;;;;;;15.03;11.70;;;;;;;15.14;67.64;98497.81;1368820;87;20402;31
2021/11/28 11:03:34;;;;;;;13.93;11.03;;;;;;;15.18;68.75;98495.52;1365358;87;22385;-91
2021/11/28 11:06:20;;;;;;;13.95;10.82;;;;;;;15.07;68.21;98493.08;1387665;87;21484;-94
2021/11/28 11:09:14;;;;;;;14.57;12.20;;;;;;;14.93;67.43;98478.29;1406809;87;21606;31
2021/11/28 11:14:14;;;;;;;15.08;10.88;;;;;;;14.69;67.80;98474.68;1373136;87;21605;31
2021/11/28 11:16:45;;;;;;;10.25;9.15;;;;;;;14.54;68.28;98468.39;1396568;87;21625;-95
2021/11/28 11:19:44;;;;;;;11.73;9.50;;;;;;;14.34;67.32;98467.23;1371072;87;21486;-92
2021/11/28 11:22:27;;;;;;;18.30;11.63;;;;;;;14.18;68.09;98453.46;1362994;87;24253;31
2021/11/28 11:25:05;;;;;;;16.83;10.77;;;;;;;14.49;68.85;98452.23;1352823;87;21581;31
2021/11/28 11:27:38;;;;;;;11.40;8.50;;;;;;;14.78;68.49;98457.36;1352806;87;21625;31
2021/11/28 11:30:18;;;;;;;10.73;8.03;;;;;;;14.95;67.63;98453.58;1363924;87;21618;-94
2021/11/28 11:32:45;;;;;;;14.75;10.03;;;;;;;14.98;66.71;98450.47;1373260;86;21723;-95
2021/11/28 11:35:31;;;;;;;28.20;12.90;;;;;;;14.94;67.29;98449.30;1380744;88;21362;-92
2021/11/28 11:38:05;;;;;;;11.37;9.50;;;;;;;14.98;67.14;98445.14;1384150;87;21642;-92
2021/11/28 11:40:32;;;;;;;11.27;10.10;;;;;;;14.80;66.62;98444.13;1372464;87;21867;-90
2021/11/28 11:43:01;;;;;;;19.23;11.63;;;;;;;14.68;66.24;98436.59;1403795;87;21428;-89
2021/11/28 11:45:39;;;;;;;13.43;10.27;;;;;;;14.79;66.84;98421.20;1397083;87;21347;-94
2021/11/28 11:48:06;;;;;;;17.73;11.40;;;;;;;15.08;66.69;98414.80;1394513;87;21485;-86